Time;durP1;ratioP1;P1;durP2;ratioP2;P2;SDS_P1;SDS_P2;PMS_P1;PMS_P2;Temp;Humidity;BMP_temperature;BMP_pressure;BME280_temperature;BME280_humidity;BME280_pressure;Samples;Min_cycle;Max_cycle;Signal;HPM_P1;HPM_P2
2022/04/14 00:01:57;;;;;;;17.37;12.93;;;;;;;14.85;77.23;101142.94;4980446;28;20631;-73
2022/04/14 00:04:24;;;;;;;16.07;12.60;;;;;;;14.80;77.11;101137.91;4981988;28;20319;-73
2022/04/14 00:06:52;;;;;;;16.83;12.77;;;;;;;14.74;77.05;101138.34;4983298;28;20239;-73
2022/04/14 00:09:19;;;;;;;19.37;13.00;;;;;;;14.68;77.20;101144.19;4974603;28;20227;-73
2022/04/14 00:11:46;;;;;;;16.30;11.47;;;;;;;14.63;77.34;101142.78;4980537;28;20578;-73
2022/04/14 00:14:12;;;;;;;19.90;12.47;;;;;;;14.59;77.21;101145.69;4981688;28;20235;-73
2022/04/14 00:16:39;;;;;;;16.07;11.63;;;;;;;14.56;77.57;101145.03;4984818;28;20235;-73
2022/04/14 00:19:07;;;;;;;16.23;12.37;;;;;;;14.52;77.52;101152.44;4982758;28;20689;-73
2022/04/14 00:21:34;;;;;;;19.03;13.00;;;;;;;14.49;77.78;101150.00;4980077;28;20212;-73
2022/04/14 00:24:02;;;;;;;15.67;12.13;;;;;;;14.48;77.83;101153.66;4980977;28;20212;-73
2022/04/14 00:26:29;;;;;;;16.77;12.50;;;;;;;14.48;77.93;101156.34;4981854;28;20314;-73
2022/04/14 00:28:55;;;;;;;18.47;12.70;;;;;;;14.47;78.02;101161.81;4981982;28;20207;-73
2022/04/14 00:31:22;;;;;;;15.43;12.63;;;;;;;14.48;78.04;101152.78;4979313;28;20258;-73
2022/04/14 00:33:49;;;;;;;16.10;12.00;;;;;;;14.47;78.41;101157.28;4981590;28;20323;-73
2022/04/14 00:36:16;;;;;;;18.27;12.37;;;;;;;14.46;78.06;101158.25;4981131;28;20593;-72
2022/04/14 00:38:43;;;;;;;18.17;12.10;;;;;;;14.46;78.03;101158.25;4981465;28;20307;-73
2022/04/14 00:41:11;;;;;;;20.07;12.90;;;;;;;14.43;78.12;101161.16;4982941;28;20666;-73
2022/04/14 00:43:38;;;;;;;15.77;11.70;;;;;;;14.43;78.12;101161.16;4983223;28;20239;-73
2022/04/14 00:46:05;;;;;;;20.60;12.97;;;;;;;14.44;77.91;101159.34;4981536;28;20232;-73
2022/04/14 00:48:33;;;;;;;17.43;12.50;;;;;;;14.44;78.02;101160.19;4975028;28;20212;-73
2022/04/14 00:51:01;;;;;;;21.03;12.33;;;;;;;14.43;78.17;101155.78;4973652;28;20236;-73
2022/04/14 00:53:27;;;;;;;17.13;11.77;;;;;;;14.44;78.18;101151.28;4979616;28;20795;-73
2022/04/14 00:55:54;;;;;;;22.47;12.60;;;;;;;14.43;78.03;101145.06;5031890;23;20321;-73
2022/04/14 00:58:22;;;;;;;17.97;11.70;;;;;;;14.43;78.13;101158.47;4989234;28;20239;-72
2022/04/14 01:00:49;;;;;;;20.47;12.37;;;;;;;14.39;78.15;101156.94;5001583;28;20226;-72
2022/04/14 01:03:17;;;;;;;15.43;11.53;;;;;;;14.36;78.25;101162.50;4994033;28;20239;-72
2022/04/14 01:05:45;;;;;;;16.20;12.00;;;;;;;14.35;77.91;101157.25;4986820;28;20247;-72
2022/04/14 01:08:16;;;;;;;16.60;11.90;;;;;;;14.34;78.03;101163.59;4985206;28;20238;-72
2022/04/14 01:10:48;;;;;;;15.67;11.10;;;;;;;14.30;78.08;101162.97;4983261;28;20214;-72
2022/04/14 01:13:15;;;;;;;18.40;10.90;;;;;;;14.29;78.33;101163.94;4975744;28;20239;-72
2022/04/14 01:15:43;;;;;;;17.27;11.33;;;;;;;14.28;78.12;101166.72;4984492;28;20262;-72
2022/04/14 01:18:10;;;;;;;15.40;11.13;;;;;;;14.26;78.03;101164.13;4983156;28;20286;-72
2022/04/14 01:20:38;;;;;;;16.83;10.60;;;;;;;14.25;77.93;101165.09;4978153;28;20713;-72
2022/04/14 01:23:05;;;;;;;16.83;11.10;;;;;;;14.23;78.28;101167.88;4982343;28;20678;-72
2022/04/14 01:25:35;;;;;;;19.37;12.60;;;;;;;14.20;78.13;101173.47;4978925;28;20228;-72
2022/04/14 01:28:03;;;;;;;17.70;11.33;;;;;;;14.20;77.94;101172.59;4980526;28;20200;-72
2022/04/14 01:30:30;;;;;;;17.20;11.50;;;;;;;14.19;78.32;101170.88;4980215;28;20291;-72
2022/04/14 01:32:57;;;;;;;16.30;11.07;;;;;;;14.18;78.33;101172.69;4981762;28;20792;-72
2022/04/14 01:35:24;;;;;;;17.77;11.47;;;;;;;14.18;78.69;101174.53;4980247;28;20247;-72
2022/04/14 01:37:51;;;;;;;15.70;11.40;;;;;;;14.19;78.42;101176.25;4979265;28;20274;-72
2022/04/14 01:40:18;;;;;;;17.70;11.93;;;;;;;14.19;78.51;101176.25;4983049;28;20239;-72
2022/04/14 01:42:46;;;;;;;17.80;11.53;;;;;;;14.18;78.74;101180.75;4984700;28;20215;-72
2022/04/14 01:45:13;;;;;;;16.23;11.63;;;;;;;14.19;78.77;101186.97;4979820;28;20254;-72
2022/04/14 01:47:41;;;;;;;17.53;12.07;;;;;;;14.19;78.60;101192.31;4982631;28;20283;-72
2022/04/14 01:50:09;;;;;;;15.50;11.63;;;;;;;14.18;78.84;101191.44;4984082;28;20286;-72
2022/04/14 01:52:37;;;;;;;20.87;13.10;;;;;;;14.16;78.47;101196.06;4984082;28;20242;-72
2022/04/14 01:55:06;;;;;;;17.37;12.10;;;;;;;14.16;78.51;101190.69;4984950;28;20323;-72
2022/04/14 01:57:33;;;;;;;19.97;12.10;;;;;;;14.15;78.57;101186.31;4984584;28;20282;-72
2022/04/14 02:00:04;;;;;;;16.03;12.37;;;;;;;14.14;78.74;101189.13;4983431;28;20262;-72
2022/04/14 02:02:31;;;;;;;20.53;13.47;;;;;;;14.12;78.87;101197.25;4984369;28;20204;-72
2022/04/14 02:04:58;;;;;;;18.07;12.60;;;;;;;14.12;78.65;101196.41;4984545;28;20273;-72
2022/04/14 02:07:25;;;;;;;16.40;11.83;;;;;;;14.10;78.82;101190.28;4982394;28;20215;-72
2022/04/14 02:09:51;;;;;;;18.00;12.40;;;;;;;14.11;78.93;101186.66;4982896;28;20646;-72
2022/04/14 02:12:18;;;;;;;17.53;12.27;;;;;;;14.12;79.04;101188.38;4980848;28;20653;-72
2022/04/14 02:14:44;;;;;;;20.70;12.63;;;;;;;14.12;78.92;101194.59;4980469;28;20305;-72
2022/04/14 02:17:12;;;;;;;17.23;12.63;;;;;;;14.12;79.02;101193.72;4989718;28;20208;-72
2022/04/14 02:19:39;;;;;;;21.80;13.00;;;;;;;14.12;79.26;101180.34;4987911;28;20246;-72
2022/04/14 02:22:06;;;;;;;18.53;13.17;;;;;;;14.12;79.21;101170.47;4986157;28;20287;-72
2022/04/14 02:24:33;;;;;;;20.57;13.10;;;;;;;14.12;79.36;101173.16;4985837;28;20298;-72
2022/04/14 02:26:59;;;;;;;19.17;12.73;;;;;;;14.13;79.55;101184.72;4981738;28;20282;-72
2022/04/14 02:29:26;;;;;;;17.87;13.23;;;;;;;14.11;79.56;101178.63;4982388;28;20295;-72
2022/04/14 02:31:56;;;;;;;19.23;13.73;;;;;;;14.11;79.46;101186.66;4986941;28;20211;-72
2022/04/14 02:34:25;;;;;;;23.53;14.00;;;;;;;14.10;79.67;101185.78;4979422;28;20229;-72
2022/04/14 02:36:51;;;;;;;19.47;14.33;;;;;;;14.11;79.93;101183.97;4980478;28;20291;-72
2022/04/14 02:39:18;;;;;;;24.53;15.53;;;;;;;14.10;79.98;101187.63;4977744;28;20205;-72
2022/04/14 02:41:45;;;;;;;24.63;15.17;;;;;;;14.09;80.13;101185.91;4980896;28;20290;-72
2022/04/14 02:44:12;;;;;;;20.73;15.97;;;;;;;14.08;80.32;101182.34;4979929;28;20212;-72
2022/04/14 02:46:38;;;;;;;23.50;15.07;;;;;;;14.09;80.22;101189.44;4982184;28;20228;-72
2022/04/14 02:49:05;;;;;;;22.17;16.20;;;;;;;14.08;80.57;101177.00;4978687;28;20272;-72
2022/04/14 02:51:33;;;;;;;24.37;15.07;;;;;;;14.06;80.68;101176.25;4980974;28;20576;-72
2022/04/14 02:54:00;;;;;;;21.27;15.43;;;;;;;14.04;80.65;101183.53;4980733;28;20303;-72
2022/04/14 02:56:26;;;;;;;23.43;15.77;;;;;;;14.00;81.03;101179.34;4982297;28;20316;-72
2022/04/14 02:58:53;;;;;;;21.07;15.47;;;;;;;13.99;81.03;101172.28;4977801;28;20307;-72
2022/04/14 03:01:19;;;;;;;22.77;15.60;;;;;;;13.97;81.07;101178.72;4976472;28;20211;-72
2022/04/14 03:03:46;;;;;;;18.40;14.37;;;;;;;13.94;81.36;101174.44;4980393;28;20290;-72
2022/04/14 03:06:13;;;;;;;18.90;14.60;;;;;;;13.92;81.21;101168.31;4981671;28;20245;-72
2022/04/14 03:08:41;;;;;;;20.27;14.90;;;;;;;13.90;81.49;101172.91;4979623;28;20291;-72
2022/04/14 03:11:08;;;;;;;21.73;14.07;;;;;;;13.88;81.87;101166.81;4983674;28;20303;-72
2022/04/14 03:13:35;;;;;;;20.93;15.00;;;;;;;13.87;82.01;101160.59;4976761;28;20247;-72
2022/04/14 03:16:01;;;;;;;16.90;13.67;;;;;;;13.86;82.07;101171.41;4980963;28;20303;-72
2022/04/14 03:18:28;;;;;;;21.73;14.23;;;;;;;13.83;82.01;101164.44;4981559;28;20303;-72
2022/04/14 03:20:54;;;;;;;20.67;14.67;;;;;;;13.83;82.12;101168.94;4979387;28;20736;-72
2022/04/14 03:23:21;;;;;;;22.20;14.30;;;;;;;13.81;82.37;101162.81;4979161;28;20287;-72
2022/04/14 03:25:50;;;;;;;18.30;13.53;;;;;;;13.77;82.28;101162.19;4984254;28;20746;-72
2022/04/14 03:28:17;;;;;;;16.20;11.97;;;;;;;13.73;82.44;101157.16;4987500;28;20233;-72
2022/04/14 03:30:43;;;;;;;17.17;11.87;;;;;;;13.70;82.57;101165.38;4984982;28;20702;-72
2022/04/14 03:33:10;;;;;;;14.90;11.03;;;;;;;13.66;83.03;101170.09;4986160;28;20741;-72
2022/04/14 03:35:37;;;;;;;18.40;11.37;;;;;;;13.63;82.91;101162.25;4987998;28;20258;-72
2022/04/14 03:38:04;;;;;;;12.67;9.63;;;;;;;13.61;83.04;101164.22;4985235;28;20291;-71
2022/04/14 03:40:30;;;;;;;13.87;9.57;;;;;;;13.57;83.30;101149.31;4987530;28;20446;-72
2022/04/14 03:42:58;;;;;;;10.93;8.10;;;;;;;13.54;83.67;101158.41;4985019;28;20291;-71
2022/04/14 03:45:25;;;;;;;10.40;7.10;;;;;;;13.53;83.54;101154.00;4986369;28;20325;-72
2022/04/14 03:47:52;;;;;;;8.23;6.77;;;;;;;13.49;83.77;101155.19;4977773;28;20214;-71
2022/04/14 03:50:18;;;;;;;7.27;6.03;;;;;;;13.46;83.92;101167.91;4979199;28;20217;-72
2022/04/14 03:52:45;;;;;;;9.03;5.97;;;;;;;13.44;84.15;101168.00;4977548;28;20208;-72
2022/04/14 03:55:12;;;;;;;7.90;6.03;;;;;;;13.41;84.48;101159.34;4974926;28;20243;-72
2022/04/14 03:57:38;;;;;;;7.67;5.27;;;;;;;13.38;84.53;101165.75;4971696;28;20291;-72
2022/04/14 04:00:08;;;;;;;5.90;5.00;;;;;;;13.36;84.83;101166.81;4971913;28;20205;-72
2022/04/14 04:02:36;;;;;;;6.63;5.73;;;;;;;13.34;84.60;101152.69;4969637;28;20228;-72
2022/04/14 04:05:03;;;;;;;7.67;5.57;;;;;;;13.33;84.93;101170.53;4970374;28;20236;-72
2022/04/14 04:07:29;;;;;;;5.27;4.77;;;;;;;13.32;85.07;101165.28;4971343;28;20291;-72
2022/04/14 04:09:56;;;;;;;5.27;4.77;;;;;;;13.30;85.25;101161.84;4971934;28;20634;-72
2022/04/14 04:12:23;;;;;;;7.13;5.03;;;;;;;13.29;85.14;101152.13;4977701;28;20378;-72
2022/04/14 04:14:50;;;;;;;7.13;4.50;;;;;;;13.28;85.31;101163.78;4973374;28;20319;-72
2022/04/14 04:17:18;;;;;;;5.90;4.83;;;;;;;13.25;85.40;101162.19;4974194;28;20630;-72
2022/04/14 04:19:45;;;;;;;4.97;4.47;;;;;;;13.24;85.35;101162.28;4971229;28;20208;-72
2022/04/14 04:22:12;;;;;;;6.57;4.70;;;;;;;13.23;85.32;101156.06;4981294;28;20290;-72
2022/04/14 04:24:39;;;;;;;4.97;4.43;;;;;;;13.24;85.64;101164.97;4977962;28;20226;-72
2022/04/14 04:27:06;;;;;;;5.33;4.20;;;;;;;13.24;85.81;101167.63;4976643;28;20289;-72
2022/04/14 04:29:33;;;;;;;5.73;4.37;;;;;;;13.24;85.68;101171.16;4972748;28;20212;-72
2022/04/14 04:31:59;;;;;;;5.27;4.67;;;;;;;13.24;85.79;101162.28;4970616;28;20211;-72
2022/04/14 04:34:27;;;;;;;5.97;4.33;;;;;;;13.24;86.06;101178.34;4968208;28;20333;-72
2022/04/14 04:36:54;;;;;;;6.00;4.43;;;;;;;13.24;86.24;101175.66;4970376;28;20215;-72
2022/04/14 04:39:21;;;;;;;7.07;4.93;;;;;;;13.23;86.27;101174.81;4972217;28;20295;-72
2022/04/14 04:41:47;;;;;;;5.47;3.87;;;;;;;13.22;86.39;101177.56;4979199;28;21618;-73
2022/04/14 04:44:14;;;;;;;5.00;4.50;;;;;;;13.22;86.40;101174.91;4987526;28;20311;-74
2022/04/14 04:46:41;;;;;;;6.40;4.73;;;;;;;13.21;86.46;101182.06;4972934;28;20651;-73
2022/04/14 04:49:07;;;;;;;5.67;5.07;;;;;;;13.20;86.43;101188.38;4981368;28;20299;-74
2022/04/14 04:51:35;;;;;;;6.07;4.90;;;;;;;13.19;86.40;101178.63;4984398;28;20213;-74
2022/04/14 04:54:02;;;;;;;6.33;4.87;;;;;;;13.16;86.88;101181.50;4989440;28;20315;-74
2022/04/14 04:56:28;;;;;;;5.70;4.83;;;;;;;13.15;86.69;101174.44;4995232;28;20589;-74
2022/04/14 04:58:55;;;;;;;7.57;4.97;;;;;;;13.11;86.86;101179.09;4994701;28;20296;-73
2022/04/14 05:01:22;;;;;;;7.93;5.23;;;;;;;13.09;86.94;101183.66;4995083;28;20211;-73
2022/04/14 05:03:48;;;;;;;5.67;4.87;;;;;;;13.09;87.25;101188.16;4995267;28;20769;-73
2022/04/14 05:06:15;;;;;;;6.53;5.23;;;;;;;13.07;87.45;101182.94;4995339;28;20235;-73
2022/04/14 05:08:43;;;;;;;5.57;5.07;;;;;;;13.07;87.42;101190.09;4991575;28;20207;-74
2022/04/14 05:11:09;;;;;;;6.37;5.33;;;;;;;13.07;87.67;101204.34;4987509;28;20239;-73
2022/04/14 05:13:36;;;;;;;6.17;5.40;;;;;;;13.06;87.66;101202.63;4988383;28;20283;-73
2022/04/14 05:16:04;;;;;;;6.37;5.50;;;;;;;13.05;87.73;101208.91;4994098;28;20235;-73
2022/04/14 05:18:31;;;;;;;7.90;5.80;;;;;;;13.04;87.84;101203.66;4987464;28;20208;-73
2022/04/14 05:20:57;;;;;;;8.90;6.17;;;;;;;13.03;88.08;101208.16;4995418;28;20287;-72
2022/04/14 05:23:24;;;;;;;7.40;6.13;;;;;;;13.05;88.45;101213.41;4995239;28;20238;-73
2022/04/14 05:25:52;;;;;;;7.87;6.27;;;;;;;13.03;88.42;101205.47;4986959;28;20748;-73
2022/04/14 05:28:19;;;;;;;6.93;6.23;;;;;;;13.03;88.74;101202.81;4995290;28;20354;-73
2022/04/14 05:30:45;;;;;;;7.37;6.60;;;;;;;13.03;88.39;101205.47;4995482;28;20309;-73
2022/04/14 05:33:13;;;;;;;8.07;6.37;;;;;;;13.03;88.84;101210.84;4994881;28;20286;-73
2022/04/14 05:35:41;;;;;;;7.03;5.80;;;;;;;13.03;88.69;101212.66;4995077;28;20658;-73
2022/04/14 05:38:08;;;;;;;8.07;6.43;;;;;;;13.02;89.12;101206.44;4994527;28;20218;-73
2022/04/14 05:40:35;;;;;;;8.43;7.20;;;;;;;13.01;89.16;101215.41;4994978;28;20215;-73
2022/04/14 05:43:03;;;;;;;8.63;7.27;;;;;;;13.01;89.18;101215.41;4995300;28;20702;-74
2022/04/14 05:45:30;;;;;;;7.77;6.53;;;;;;;13.00;89.28;101215.50;4995026;28;20231;-73
2022/04/14 05:47:56;;;;;;;7.20;6.43;;;;;;;12.99;89.37;101220.00;4995039;28;20200;-73
2022/04/14 05:50:23;;;;;;;9.10;6.43;;;;;;;12.99;89.52;101211.97;4995511;28;20290;-74
2022/04/14 05:52:50;;;;;;;9.20;6.40;;;;;;;12.98;89.80;101210.25;4994714;28;20673;-73
2022/04/14 05:55:16;;;;;;;7.20;5.93;;;;;;;12.98;89.79;101215.59;4994603;28;20259;-74
2022/04/14 05:57:43;;;;;;;6.60;5.77;;;;;;;12.98;89.95;101207.59;4979644;28;20221;-73
2022/04/14 06:00:13;;;;;;;7.33;5.77;;;;;;;12.97;90.04;101210.34;4984455;28;20223;-73
2022/04/14 06:02:40;;;;;;;6.57;5.57;;;;;;;12.97;90.36;101213.03;4993807;28;20217;-73
2022/04/14 06:05:08;;;;;;;6.67;5.63;;;;;;;12.96;90.17;101220.19;4990743;28;20787;-74
2022/04/14 06:07:34;;;;;;;9.70;6.50;;;;;;;12.97;90.37;101223.72;4987066;28;20290;-73
2022/04/14 06:10:01;;;;;;;14.43;6.47;;;;;;;12.95;90.30;101218.47;4983954;28;20303;-73
2022/04/14 06:12:28;;;;;;;8.87;5.63;;;;;;;12.95;90.46;101221.16;4984924;28;20235;-74
2022/04/14 06:14:54;;;;;;;6.20;5.30;;;;;;;12.94;90.66;101230.13;4979405;28;20259;-73
2022/04/14 06:17:22;;;;;;;7.10;5.50;;;;;;;12.95;90.61;101233.66;4979028;28;20803;-73
2022/04/14 06:19:49;;;;;;;8.30;6.37;;;;;;;12.95;90.70;101245.22;4983012;28;20563;-73
2022/04/14 06:22:15;;;;;;;8.30;6.10;;;;;;;12.95;90.61;101236.31;4987545;28;20231;-73
2022/04/14 06:24:42;;;;;;;9.23;6.50;;;;;;;12.94;90.78;101243.50;4987672;28;20471;-74
2022/04/14 06:27:09;;;;;;;7.33;6.63;;;;;;;12.94;90.66;101240.81;4991223;28;20279;-73
2022/04/14 06:29:35;;;;;;;12.50;9.47;;;;;;;12.96;90.91;101246.94;4976059;28;20208;-73
2022/04/14 06:32:02;;;;;;;14.57;11.67;;;;;;;12.96;91.19;101243.41;4987408;28;20202;-73
2022/04/14 06:34:30;;;;;;;18.70;12.40;;;;;;;12.97;91.06;101247.78;4976093;28;20311;-72
2022/04/14 06:36:56;;;;;;;18.00;14.57;;;;;;;12.95;91.30;101253.22;4991282;28;20228;-73
2022/04/14 06:39:23;;;;;;;18.00;12.90;;;;;;;12.96;91.26;101246.94;4991406;28;20752;-73
2022/04/14 06:41:50;;;;;;;17.53;14.23;;;;;;;12.96;91.55;101244.25;4991563;28;20244;-73
2022/04/14 06:44:16;;;;;;;16.87;13.70;;;;;;;12.97;91.51;101239.78;4981254;28;20305;-73
2022/04/14 06:46:43;;;;;;;18.37;14.07;;;;;;;12.97;91.53;101245.13;4984234;28;20246;-73
2022/04/14 06:49:09;;;;;;;20.07;13.77;;;;;;;12.96;91.85;101246.94;4989574;28;20307;-74
2022/04/14 06:51:37;;;;;;;17.53;13.80;;;;;;;12.97;91.67;101251.31;4980388;28;20297;-73
2022/04/14 06:54:04;;;;;;;16.00;13.60;;;;;;;12.98;91.95;101247.69;4990486;28;20201;-73
2022/04/14 06:56:31;;;;;;;19.13;13.03;;;;;;;12.99;91.80;101254.75;5003667;23;20614;-81
2022/04/14 06:58:57;;;;;;;16.50;13.13;;;;;;;12.99;92.06;101252.09;4997115;28;20222;-81
2022/04/14 07:01:24;;;;;;;18.30;13.67;;;;;;;13.00;92.36;101255.63;4997879;28;20213;-81
2022/04/14 07:03:50;;;;;;;17.93;14.07;;;;;;;13.01;92.21;101262.69;4998604;28;20254;-81
2022/04/14 07:06:17;;;;;;;19.33;14.37;;;;;;;13.03;92.16;101258.09;5015853;28;20289;-81
2022/04/14 07:08:45;;;;;;;23.73;14.63;;;;;;;13.04;92.28;101262.50;5015856;28;20213;-81
2022/04/14 07:11:12;;;;;;;19.83;13.17;;;;;;;13.04;92.41;101263.34;5015570;28;20219;-81
2022/04/14 07:13:39;;;;;;;19.20;15.13;;;;;;;13.05;92.32;101267.75;5014959;28;20261;-81
2022/04/14 07:16:06;;;;;;;18.10;13.40;;;;;;;13.05;92.69;101254.38;5014629;28;20326;-82
2022/04/14 07:18:32;;;;;;;16.87;13.63;;;;;;;13.07;92.29;101262.31;5016012;28;20199;-81
2022/04/14 07:20:59;;;;;;;20.60;13.93;;;;;;;13.07;92.78;101265.84;5015067;28;20207;-80
2022/04/14 07:23:27;;;;;;;19.67;13.90;;;;;;;13.08;92.50;101266.66;5015751;28;20763;-81
2022/04/14 07:25:55;;;;;;;23.53;15.13;;;;;;;13.09;92.53;101263.03;5015980;28;20241;-81
2022/04/14 07:28:22;;;;;;;20.43;15.80;;;;;;;13.09;92.70;101257.69;5015415;28;20469;-80
2022/04/14 07:30:48;;;;;;;22.80;15.60;;;;;;;13.10;92.87;101262.94;5016064;28;20221;-81
2022/04/14 07:33:15;;;;;;;20.53;16.00;;;;;;;13.12;92.65;101261.03;5016054;28;20209;-81
2022/04/14 07:35:41;;;;;;;20.80;15.63;;;;;;;13.13;93.30;101257.41;5015339;28;20262;-82
2022/04/14 07:38:08;;;;;;;21.33;15.70;;;;;;;13.14;93.07;101253.78;5014786;28;20700;-81
2022/04/14 07:40:34;;;;;;;20.27;13.77;;;;;;;13.16;93.15;101265.28;5008240;28;20672;-81
2022/04/14 07:43:02;;;;;;;19.30;14.17;;;;;;;13.18;92.87;101254.47;4995249;28;20207;-80
2022/04/14 07:45:29;;;;;;;17.97;13.20;;;;;;;13.19;93.13;101258.88;5005964;28;20239;-81
2022/04/14 07:47:56;;;;;;;18.57;13.23;;;;;;;13.20;92.80;101263.25;5015856;28;20213;-81
2022/04/14 07:50:22;;;;;;;21.53;14.30;;;;;;;13.23;93.15;101257.72;5016377;28;20230;-81
2022/04/14 07:52:50;;;;;;;16.27;13.23;;;;;;;13.25;92.75;101257.63;5016473;28;20207;-81
2022/04/14 07:55:22;;;;;;;18.03;12.53;;;;;;;13.26;92.76;101259.31;5016762;28;20234;-82
2022/04/14 07:57:49;;;;;;;17.47;12.83;;;;;;;13.28;92.72;101270.78;5016842;28;20201;-81
2022/04/14 08:00:18;;;;;;;16.17;12.07;;;;;;;13.29;92.54;101267.13;5016630;28;20223;-81
2022/04/14 08:02:50;;;;;;;19.20;13.40;;;;;;;13.31;92.50;101267.91;5016768;28;20209;-81
2022/04/14 08:05:17;;;;;;;14.10;11.73;;;;;;;13.33;92.56;101274.88;5016041;28;20219;-81
2022/04/14 08:07:43;;;;;;;16.00;11.53;;;;;;;13.34;92.73;101275.75;5011097;28;20211;-81
2022/04/14 08:10:10;;;;;;;16.00;12.17;;;;;;;13.34;92.50;101267.72;5015548;28;20562;-81
2022/04/14 08:12:36;;;;;;;15.60;12.53;;;;;;;13.34;92.35;101267.72;5014527;28;20215;-81
2022/04/14 08:15:04;;;;;;;16.40;12.67;;;;;;;13.37;91.97;101262.16;4998149;28;20235;-82
2022/04/14 08:17:33;;;;;;;15.50;11.67;;;;;;;13.39;92.07;101260.25;5008039;28;20216;-82
2022/04/14 08:20:00;;;;;;;13.43;11.77;;;;;;;13.42;92.34;101260.91;4994955;28;20227;-82
2022/04/14 08:22:26;;;;;;;14.43;11.47;;;;;;;13.43;92.00;101265.31;4994793;28;20204;-82
2022/04/14 08:24:53;;;;;;;13.50;11.67;;;;;;;13.46;92.27;101270.44;5000436;28;20241;-82
2022/04/14 08:27:19;;;;;;;16.03;11.70;;;;;;;13.48;91.97;101273.00;4995060;28;20216;-81
2022/04/14 08:29:46;;;;;;;17.57;13.17;;;;;;;13.50;91.94;101271.09;5011321;28;20233;-81
2022/04/14 08:32:12;;;;;;;14.50;10.93;;;;;;;13.50;91.60;101268.44;5015323;28;20580;-81
2022/04/14 08:34:44;;;;;;;12.03;10.07;;;;;;;13.50;91.87;101260.41;5012330;28;20251;-82
2022/04/14 08:37:11;;;;;;;12.77;10.33;;;;;;;13.50;91.68;101263.06;5008045;28;20359;-81
2022/04/14 08:39:38;;;;;;;13.30;10.30;;;;;;;13.52;91.41;101264.69;4997451;28;20206;-82
2022/04/14 08:42:13;;;;;;;17.40;11.27;;;;;;;13.53;91.45;101274.44;5001014;28;20219;-82
2022/04/14 08:44:47;;;;;;;13.20;10.50;;;;;;;13.55;91.36;101269.00;4998758;28;20255;-82
2022/04/14 08:47:16;;;;;;;13.87;10.40;;;;;;;13.59;91.29;101272.31;4993252;28;20214;-81
2022/04/14 08:49:48;;;;;;;13.53;10.20;;;;;;;13.60;91.41;101277.59;5004144;28;20199;-81
2022/04/14 08:52:16;;;;;;;13.73;10.07;;;;;;;13.63;91.07;101268.47;4997981;28;20203;-80
2022/04/14 08:54:44;;;;;;;13.83;9.77;;;;;;;13.64;90.89;101267.50;5001929;28;20289;-81
2022/04/14 08:57:13;;;;;;;14.33;9.47;;;;;;;13.66;90.86;101255.75;4999472;28;20318;-80
2022/04/14 08:59:43;;;;;;;11.53;9.10;;;;;;;13.70;90.64;101259.94;4996651;28;20208;-82
2022/04/14 09:02:14;;;;;;;14.80;9.23;;;;;;;13.74;90.64;101257.91;5000923;28;20230;-82
2022/04/14 09:04:41;;;;;;;460.37;60.97;;;;;;;13.80;90.74;101271.72;5000076;28;20286;-80
2022/04/14 09:07:10;;;;;;;188.77;24.77;;;;;;;13.85;90.12;101268.75;5000739;28;20702;-81
2022/04/14 09:09:36;;;;;;;131.57;22.57;;;;;;;13.88;89.76;101266.75;5000884;28;20199;-82
2022/04/14 09:12:03;;;;;;;17.63;10.43;;;;;;;13.93;89.87;101268.25;4999692;28;20208;-81
2022/04/14 09:14:31;;;;;;;141.10;22.43;;;;;;;13.96;89.47;101262.69;5000175;28;20627;-82
2022/04/14 09:16:58;;;;;;;42.97;13.70;;;;;;;14.01;89.15;101266.75;4995736;28;20231;-83
2022/04/14 09:19:29;;;;;;;64.93;15.57;;;;;;;14.06;88.62;101263.78;5004147;28;20210;-82
2022/04/14 09:21:59;;;;;;;19.00;11.07;;;;;;;14.10;88.43;101266.16;5002000;28;20199;-81
2022/04/14 09:24:41;;;;;;;12.57;8.97;;;;;;;14.16;87.97;101275.56;4997303;28;20222;-82
2022/04/14 09:27:08;;;;;;;9.90;7.93;;;;;;;14.22;87.50;101277.84;4997030;28;20210;-82
2022/04/14 09:29:46;;;;;;;12.53;8.57;;;;;;;14.28;87.35;101280.09;4998024;28;20195;-80
2022/04/14 09:32:30;;;;;;;12.63;8.60;;;;;;;14.36;87.15;101277.72;4996951;28;20674;-79
2022/04/14 09:34:57;;;;;;;12.17;8.10;;;;;;;14.42;87.43;101274.66;4996138;28;20729;-81
2022/04/14 09:37:24;;;;;;;479.93;62.67;;;;;;;14.49;87.13;101264.41;4999399;28;20690;-80
2022/04/14 09:40:05;;;;;;;79.07;16.50;;;;;;;14.54;86.30;101268.44;4999283;28;20218;-80
2022/04/14 09:42:34;;;;;;;266.00;33.60;;;;;;;14.59;86.29;101263.63;4999334;28;20213;-80
2022/04/14 09:45:20;;;;;;;12.83;9.73;;;;;;;14.63;85.71;101258.06;5004514;28;20234;-81
2022/04/14 09:47:47;;;;;;;11.17;9.37;;;;;;;14.65;85.36;101273.06;4999403;28;20204;-81
2022/04/14 09:50:25;;;;;;;11.27;9.23;;;;;;;14.69;84.83;101263.00;5003176;28;20217;-80
2022/04/14 09:53:00;;;;;;;14.50;8.90;;;;;;;14.72;84.80;101262.75;5001068;28;20270;-82
2022/04/14 09:55:28;;;;;;;101.87;17.53;;;;;;;14.72;84.05;101252.03;5000436;28;20258;-82
2022/04/14 09:58:15;;;;;;;80.33;16.33;;;;;;;14.73;84.11;101257.28;5002245;28;20203;-81
2022/04/14 10:00:48;;;;;;;10.67;8.93;;;;;;;14.78;84.03;101252.47;5000640;28;20241;-81
2022/04/14 10:03:17;;;;;;;11.53;8.63;;;;;;;14.85;83.44;101252.91;5002257;28;20209;-81
2022/04/14 10:05:45;;;;;;;10.43;8.50;;;;;;;14.90;83.52;101256.94;5001415;28;20219;-82
2022/04/14 10:08:13;;;;;;;12.87;10.10;;;;;;;14.92;82.89;101254.16;5003783;28;20760;-82
2022/04/14 10:10:42;;;;;;;13.80;9.63;;;;;;;15.00;82.79;101257.16;5009979;28;20203;-81
2022/04/14 10:13:10;;;;;;;10.43;8.83;;;;;;;15.03;82.05;101259.63;5004205;28;20203;-82
2022/04/14 10:15:48;;;;;;;81.30;15.70;;;;;;;15.09;81.69;101255.63;4999864;28;20317;-83
2022/04/14 10:18:16;;;;;;;17.40;9.30;;;;;;;15.14;81.36;101262.38;5002150;28;20215;-81
2022/04/14 10:20:45;;;;;;;186.27;23.93;;;;;;;15.20;81.12;101256.56;5003176;28;20235;-81
2022/04/14 10:23:13;;;;;;;615.80;77.63;;;;;;;15.28;81.03;101259.53;5004187;28;20217;-82
2022/04/14 10:25:42;;;;;;;26.97;10.10;;;;;;;15.36;80.87;101250.94;5003615;28;20235;-81
2022/04/14 10:28:12;;;;;;;12.10;8.57;;;;;;;15.44;80.47;101253.03;5000318;28;20269;-83
2022/04/14 10:30:40;;;;;;;11.83;8.10;;;;;;;15.53;79.95;101252.34;5000245;28;20234;-83
2022/04/14 10:33:07;;;;;;;17.97;8.83;;;;;;;15.59;79.87;101257.28;5000005;28;20218;-83
2022/04/14 10:35:33;;;;;;;139.97;22.70;;;;;;;15.65;79.28;101254.16;4998859;28;20231;-82
2022/04/14 10:38:08;;;;;;;22.00;9.93;;;;;;;15.71;79.06;101253.69;4999051;28;20206;-83
2022/04/14 10:40:36;;;;;;;17.20;7.83;;;;;;;15.80;78.59;101246.75;4998047;28;20196;-82
2022/04/14 10:43:08;;;;;;;15.60;8.13;;;;;;;15.87;78.36;101256.94;5001028;28;20203;-83
2022/04/14 10:45:49;;;;;;;11.80;8.67;;;;;;;15.95;77.76;101249.13;4997661;28;20230;-83
2022/04/14 10:48:30;;;;;;;13.80;8.40;;;;;;;16.02;77.20;101241.47;5001194;28;20211;-83
2022/04/14 10:51:23;;;;;;;9.40;7.73;;;;;;;16.10;76.75;101249.81;4993986;28;20693;-84
2022/04/14 10:53:51;;;;;;;8.30;7.33;;;;;;;16.15;75.60;101249.44;4998974;28;20203;-84
2022/04/14 10:56:58;;;;;;;10.83;8.60;;;;;;;16.23;75.46;101249.72;4998335;28;20229;-83
2022/04/14 10:59:47;;;;;;;22.17;9.20;;;;;;;16.35;75.01;101248.75;4998742;28;20606;-83
2022/04/14 11:02:14;;;;;;;10.10;7.10;;;;;;;16.43;73.74;101246.34;4999352;28;20220;-84
2022/04/14 11:04:53;;;;;;;9.30;7.53;;;;;;;16.44;72.53;101242.69;5000461;28;20229;-83
2022/04/14 11:07:21;;;;;;;11.67;7.47;;;;;;;16.50;71.78;101244.84;4997903;28;20208;-84
2022/04/14 11:09:53;;;;;;;9.50;7.57;;;;;;;16.58;71.51;101241.56;4997844;28;20234;-84
2022/04/14 11:12:22;;;;;;;9.03;7.73;;;;;;;16.71;71.11;101238.78;4998607;28;20212;-83
2022/04/14 11:14:55;;;;;;;8.97;7.33;;;;;;;16.82;71.55;101238.81;5003902;28;20326;-84
2022/04/14 11:17:48;;;;;;;9.47;7.93;;;;;;;16.90;70.49;101233.66;4997934;28;20238;-83
2022/04/14 11:20:16;;;;;;;11.63;7.30;;;;;;;16.96;69.89;101230.47;4986781;28;20653;-84